sensor_id;sensor_type;location;lat;lon;timestamp;P1;durP1;ratioP1;P2;durP2;ratioP2
45136;SDS011;30894;51.740;19.498;2024-03-23T00:53:02;23.90;;;9.98;;
45136;SDS011;30894;51.740;19.498;2024-03-23T00:55:30;19.10;;;8.20;;
45136;SDS011;30894;51.740;19.498;2024-03-23T00:57:59;19.90;;;9.25;;
45136;SDS011;30894;51.740;19.498;2024-03-23T01:00:29;23.20;;;10.67;;
45136;SDS011;30894;51.740;19.498;2024-03-23T01:02:55;21.63;;;8.40;;
45136;SDS011;30894;51.740;19.498;2024-03-23T01:05:21;20.92;;;9.60;;
45136;SDS011;30894;51.740;19.498;2024-03-23T01:07:49;22.20;;;9.18;;
45136;SDS011;30894;51.740;19.498;2024-03-23T01:10:18;21.85;;;9.18;;
45136;SDS011;30894;51.740;19.498;2024-03-23T01:12:47;27.13;;;9.95;;
45136;SDS011;30894;51.740;19.498;2024-03-23T01:15:14;26.40;;;10.27;;
45136;SDS011;30894;51.740;19.498;2024-03-23T01:17:39;24.13;;;9.43;;
45136;SDS011;30894;51.740;19.498;2024-03-23T01:20:07;25.52;;;10.43;;
45136;SDS011;30894;51.740;19.498;2024-03-23T01:22:34;22.92;;;9.65;;
45136;SDS011;30894;51.740;19.498;2024-03-23T01:25:05;21.02;;;8.95;;
45136;SDS011;30894;51.740;19.498;2024-03-23T01:27:36;24.05;;;9.55;;
45136;SDS011;30894;51.740;19.498;2024-03-23T01:30:03;22.17;;;9.00;;
45136;SDS011;30894;51.740;19.498;2024-03-23T01:32:29;22.00;;;9.05;;
45136;SDS011;30894;51.740;19.498;2024-03-23T01:35:00;28.30;;;10.00;;
45136;SDS011;30894;51.740;19.498;2024-03-23T01:37:26;26.23;;;10.50;;
45136;SDS011;30894;51.740;19.498;2024-03-23T01:39:52;23.27;;;8.75;;
45136;SDS011;30894;51.740;19.498;2024-03-23T01:42:19;20.95;;;9.82;;
45136;SDS011;30894;51.740;19.498;2024-03-23T01:44:46;22.92;;;9.27;;
45136;SDS011;30894;51.740;19.498;2024-03-23T01:47:14;22.10;;;9.02;;
45136;SDS011;30894;51.740;19.498;2024-03-23T01:49:41;26.95;;;10.23;;
45136;SDS011;30894;51.740;19.498;2024-03-23T01:52:08;26.45;;;11.10;;
45136;SDS011;30894;51.740;19.498;2024-03-23T01:54:35;20.63;;;8.98;;
45136;SDS011;30894;51.740;19.498;2024-03-23T01:57:04;24.13;;;9.85;;
45136;SDS011;30894;51.740;19.498;2024-03-23T01:59:32;21.95;;;8.95;;
45136;SDS011;30894;51.740;19.498;2024-03-23T02:01:58;25.52;;;10.60;;
45136;SDS011;30894;51.740;19.498;2024-03-23T02:04:27;19.80;;;7.68;;
45136;SDS011;30894;51.740;19.498;2024-03-23T02:06:53;23.45;;;9.25;;
45136;SDS011;30894;51.740;19.498;2024-03-23T02:09:21;18.40;;;7.50;;
45136;SDS011;30894;51.740;19.498;2024-03-23T02:11:47;19.13;;;8.07;;
45136;SDS011;30894;51.740;19.498;2024-03-23T02:14:13;21.55;;;8.77;;
45136;SDS011;30894;51.740;19.498;2024-03-23T02:16:42;16.55;;;7.80;;
45136;SDS011;30894;51.740;19.498;2024-03-23T02:19:08;21.73;;;7.97;;
45136;SDS011;30894;51.740;19.498;2024-03-23T02:21:35;18.35;;;8.18;;
45136;SDS011;30894;51.740;19.498;2024-03-23T02:24:02;21.70;;;8.85;;
45136;SDS011;30894;51.740;19.498;2024-03-23T02:26:29;23.35;;;7.47;;
45136;SDS011;30894;51.740;19.498;2024-03-23T02:28:56;21.92;;;9.30;;
45136;SDS011;30894;51.740;19.498;2024-03-23T02:31:22;19.33;;;7.57;;
45136;SDS011;30894;51.740;19.498;2024-03-23T02:33:49;18.73;;;7.90;;
45136;SDS011;30894;51.740;19.498;2024-03-23T02:36:15;18.48;;;7.75;;
45136;SDS011;30894;51.740;19.498;2024-03-23T02:38:44;22.30;;;9.10;;
45136;SDS011;30894;51.740;19.498;2024-03-23T02:41:11;20.67;;;8.13;;
45136;SDS011;30894;51.740;19.498;2024-03-23T02:43:38;19.02;;;8.50;;
45136;SDS011;30894;51.740;19.498;2024-03-23T02:46:05;21.08;;;9.27;;
45136;SDS011;30894;51.740;19.498;2024-03-23T02:48:32;19.73;;;8.63;;
45136;SDS011;30894;51.740;19.498;2024-03-23T02:51:00;23.63;;;8.65;;
45136;SDS011;30894;51.740;19.498;2024-03-23T02:53:27;20.67;;;7.80;;
45136;SDS011;30894;51.740;19.498;2024-03-23T02:55:53;19.75;;;8.07;;
45136;SDS011;30894;51.740;19.498;2024-03-23T02:58:20;21.20;;;8.45;;
45136;SDS011;30894;51.740;19.498;2024-03-23T03:00:49;18.40;;;8.23;;
45136;SDS011;30894;51.740;19.498;2024-03-23T03:03:15;19.63;;;8.43;;
45136;SDS011;30894;51.740;19.498;2024-03-23T03:05:44;21.23;;;8.48;;
45136;SDS011;30894;51.740;19.498;2024-03-23T03:08:12;18.70;;;7.63;;
45136;SDS011;30894;51.740;19.498;2024-03-23T03:10:38;17.10;;;6.90;;
45136;SDS011;30894;51.740;19.498;2024-03-23T03:13:05;23.17;;;8.00;;
45136;SDS011;30894;51.740;19.498;2024-03-23T03:15:31;21.00;;;7.07;;
45136;SDS011;30894;51.740;19.498;2024-03-23T03:17:58;21.52;;;7.45;;
45136;SDS011;30894;51.740;19.498;2024-03-23T03:20:24;19.38;;;7.55;;
45136;SDS011;30894;51.740;19.498;2024-03-23T03:22:50;18.33;;;6.82;;
45136;SDS011;30894;51.740;19.498;2024-03-23T03:25:19;18.45;;;7.85;;
45136;SDS011;30894;51.740;19.498;2024-03-23T03:27:46;23.15;;;7.95;;
45136;SDS011;30894;51.740;19.498;2024-03-23T03:30:12;17.98;;;7.60;;
45136;SDS011;30894;51.740;19.498;2024-03-23T03:32:39;20.00;;;7.45;;
45136;SDS011;30894;51.740;19.498;2024-03-23T03:35:05;18.77;;;8.07;;
45136;SDS011;30894;51.740;19.498;2024-03-23T03:37:31;19.95;;;8.50;;
45136;SDS011;30894;51.740;19.498;2024-03-23T03:39:57;19.83;;;7.68;;
45136;SDS011;30894;51.740;19.498;2024-03-23T03:42:23;20.25;;;7.63;;
45136;SDS011;30894;51.740;19.498;2024-03-23T03:44:49;16.58;;;7.00;;
45136;SDS011;30894;51.740;19.498;2024-03-23T03:47:17;15.80;;;6.63;;
45136;SDS011;30894;51.740;19.498;2024-03-23T03:49:45;20.48;;;7.50;;
45136;SDS011;30894;51.740;19.498;2024-03-23T03:52:13;17.88;;;7.45;;
45136;SDS011;30894;51.740;19.498;2024-03-23T03:54:42;15.10;;;6.82;;
45136;SDS011;30894;51.740;19.498;2024-03-23T03:57:09;13.60;;;6.85;;
45136;SDS011;30894;51.740;19.498;2024-03-23T03:59:35;25.15;;;8.02;;
45136;SDS011;30894;51.740;19.498;2024-03-23T04:02:01;20.42;;;7.05;;
45136;SDS011;30894;51.740;19.498;2024-03-23T04:04:27;22.27;;;8.45;;
45136;SDS011;30894;51.740;19.498;2024-03-23T04:07:03;19.08;;;6.63;;
45136;SDS011;30894;51.740;19.498;2024-03-23T04:09:30;15.00;;;5.97;;
45136;SDS011;30894;51.740;19.498;2024-03-23T04:11:57;16.20;;;6.53;;
45136;SDS011;30894;51.740;19.498;2024-03-23T04:14:24;18.25;;;7.00;;
45136;SDS011;30894;51.740;19.498;2024-03-23T04:16:51;17.42;;;7.75;;
45136;SDS011;30894;51.740;19.498;2024-03-23T04:19:17;16.67;;;6.30;;
45136;SDS011;30894;51.740;19.498;2024-03-23T04:21:44;14.15;;;6.45;;
45136;SDS011;30894;51.740;19.498;2024-03-23T04:24:13;17.83;;;6.75;;
45136;SDS011;30894;51.740;19.498;2024-03-23T04:26:41;18.80;;;7.60;;
45136;SDS011;30894;51.740;19.498;2024-03-23T04:29:08;15.90;;;6.43;;
45136;SDS011;30894;51.740;19.498;2024-03-23T04:31:35;18.58;;;7.90;;
45136;SDS011;30894;51.740;19.498;2024-03-23T04:34:01;13.60;;;6.45;;
45136;SDS011;30894;51.740;19.498;2024-03-23T04:36:28;18.38;;;6.25;;
45136;SDS011;30894;51.740;19.498;2024-03-23T04:38:56;14.85;;;5.90;;
45136;SDS011;30894;51.740;19.498;2024-03-23T04:41:25;13.10;;;5.45;;
45136;SDS011;30894;51.740;19.498;2024-03-23T04:43:51;15.32;;;6.53;;
45136;SDS011;30894;51.740;19.498;2024-03-23T04:46:18;17.17;;;6.18;;
45136;SDS011;30894;51.740;19.498;2024-03-23T04:48:46;15.35;;;6.20;;
45136;SDS011;30894;51.740;19.498;2024-03-23T04:51:22;16.27;;;6.95;;
45136;SDS011;30894;51.740;19.498;2024-03-23T04:53:48;16.05;;;6.78;;
45136;SDS011;30894;51.740;19.498;2024-03-23T04:56:16;14.15;;;4.90;;
45136;SDS011;30894;51.740;19.498;2024-03-23T04:58:42;16.33;;;6.85;;
45136;SDS011;30894;51.740;19.498;2024-03-23T05:01:10;13.52;;;6.50;;
45136;SDS011;30894;51.740;19.498;2024-03-23T05:03:37;17.30;;;6.75;;
45136;SDS011;30894;51.740;19.498;2024-03-23T05:06:04;12.85;;;5.57;;
45136;SDS011;30894;51.740;19.498;2024-03-23T05:08:30;10.75;;;5.38;;
45136;SDS011;30894;51.740;19.498;2024-03-23T05:10:57;16.17;;;6.55;;
45136;SDS011;30894;51.740;19.498;2024-03-23T05:13:23;15.68;;;6.43;;
45136;SDS011;30894;51.740;19.498;2024-03-23T05:15:52;14.25;;;6.10;;
45136;SDS011;30894;51.740;19.498;2024-03-23T05:18:22;12.18;;;5.38;;
45136;SDS011;30894;51.740;19.498;2024-03-23T05:20:58;13.65;;;5.63;;
45136;SDS011;30894;51.740;19.498;2024-03-23T05:23:24;13.48;;;5.75;;
45136;SDS011;30894;51.740;19.498;2024-03-23T05:25:52;16.15;;;6.13;;
45136;SDS011;30894;51.740;19.498;2024-03-23T05:28:18;11.52;;;5.15;;
45136;SDS011;30894;51.740;19.498;2024-03-23T05:30:52;11.73;;;5.20;;
45136;SDS011;30894;51.740;19.498;2024-03-23T05:33:19;14.95;;;6.47;;
45136;SDS011;30894;51.740;19.498;2024-03-23T05:35:46;14.52;;;5.15;;
45136;SDS011;30894;51.740;19.498;2024-03-23T05:38:22;14.15;;;6.25;;
45136;SDS011;30894;51.740;19.498;2024-03-23T05:40:55;17.30;;;7.03;;
45136;SDS011;30894;51.740;19.498;2024-03-23T05:45:57;11.60;;;5.47;;
45136;SDS011;30894;51.740;19.498;2024-03-23T05:50:51;15.90;;;5.38;;
45136;SDS011;30894;51.740;19.498;2024-03-23T05:53:19;14.52;;;6.32;;
45136;SDS011;30894;51.740;19.498;2024-03-23T05:55:46;14.02;;;5.60;;
45136;SDS011;30894;51.740;19.498;2024-03-23T05:58:15;16.20;;;5.90;;
45136;SDS011;30894;51.740;19.498;2024-03-23T06:00:43;15.60;;;6.18;;
45136;SDS011;30894;51.740;19.498;2024-03-23T06:03:11;19.88;;;7.80;;
45136;SDS011;30894;51.740;19.498;2024-03-23T06:05:38;15.95;;;6.13;;
45136;SDS011;30894;51.740;19.498;2024-03-23T06:08:05;17.33;;;6.10;;
45136;SDS011;30894;51.740;19.498;2024-03-23T06:10:35;17.40;;;6.88;;
45136;SDS011;30894;51.740;19.498;2024-03-23T06:13:01;18.52;;;6.32;;
45136;SDS011;30894;51.740;19.498;2024-03-23T06:15:28;15.55;;;5.90;;
45136;SDS011;30894;51.740;19.498;2024-03-23T06:17:56;17.58;;;6.55;;
45136;SDS011;30894;51.740;19.498;2024-03-23T06:20:25;8.82;;;3.88;;
45136;SDS011;30894;51.740;19.498;2024-03-23T06:22:52;14.32;;;5.00;;
45136;SDS011;30894;51.740;19.498;2024-03-23T06:25:18;11.55;;;5.30;;
45136;SDS011;30894;51.740;19.498;2024-03-23T06:27:44;14.57;;;5.25;;
45136;SDS011;30894;51.740;19.498;2024-03-23T06:30:10;15.52;;;5.95;;
45136;SDS011;30894;51.740;19.498;2024-03-23T06:32:38;14.38;;;5.70;;
45136;SDS011;30894;51.740;19.498;2024-03-23T06:35:04;13.27;;;5.13;;
45136;SDS011;30894;51.740;19.498;2024-03-23T06:37:34;14.70;;;5.70;;
45136;SDS011;30894;51.740;19.498;2024-03-23T06:40:06;9.38;;;4.07;;
45136;SDS011;30894;51.740;19.498;2024-03-23T06:42:35;11.90;;;4.97;;
45136;SDS011;30894;51.740;19.498;2024-03-23T06:45:03;11.57;;;5.20;;
45136;SDS011;30894;51.740;19.498;2024-03-23T06:47:32;13.20;;;5.38;;
45136;SDS011;30894;51.740;19.498;2024-03-23T06:50:02;16.42;;;6.50;;
45136;SDS011;30894;51.740;19.498;2024-03-23T06:52:29;14.40;;;5.45;;
45136;SDS011;30894;51.740;19.498;2024-03-23T06:54:56;18.92;;;5.85;;
45136;SDS011;30894;51.740;19.498;2024-03-23T06:57:23;8.10;;;3.65;;
45136;SDS011;30894;51.740;19.498;2024-03-23T06:59:49;16.05;;;6.15;;
45136;SDS011;30894;51.740;19.498;2024-03-23T07:02:16;12.30;;;5.00;;
45136;SDS011;30894;51.740;19.498;2024-03-23T07:04:43;13.80;;;4.93;;
45136;SDS011;30894;51.740;19.498;2024-03-23T07:07:11;6.00;;;3.03;;
45136;SDS011;30894;51.740;19.498;2024-03-23T07:09:41;9.32;;;4.13;;
45136;SDS011;30894;51.740;19.498;2024-03-23T07:12:07;7.15;;;3.20;;
45136;SDS011;30894;51.740;19.498;2024-03-23T07:14:38;9.63;;;3.17;;
45136;SDS011;30894;51.740;19.498;2024-03-23T07:17:04;11.98;;;5.07;;
45136;SDS011;30894;51.740;19.498;2024-03-23T07:19:31;9.27;;;4.45;;
45136;SDS011;30894;51.740;19.498;2024-03-23T07:21:59;10.02;;;3.70;;
45136;SDS011;30894;51.740;19.498;2024-03-23T07:24:26;13.43;;;5.93;;
45136;SDS011;30894;51.740;19.498;2024-03-23T07:26:52;8.85;;;4.40;;
45136;SDS011;30894;51.740;19.498;2024-03-23T07:29:20;8.23;;;4.18;;
45136;SDS011;30894;51.740;19.498;2024-03-23T07:31:48;8.63;;;4.53;;
45136;SDS011;30894;51.740;19.498;2024-03-23T07:34:17;12.35;;;5.80;;
45136;SDS011;30894;51.740;19.498;2024-03-23T07:36:43;11.35;;;5.25;;
45136;SDS011;30894;51.740;19.498;2024-03-23T07:39:10;10.07;;;3.97;;
45136;SDS011;30894;51.740;19.498;2024-03-23T07:41:40;9.88;;;4.25;;
45136;SDS011;30894;51.740;19.498;2024-03-23T07:44:13;7.85;;;2.63;;
45136;SDS011;30894;51.740;19.498;2024-03-23T07:46:42;9.45;;;4.90;;
45136;SDS011;30894;51.740;19.498;2024-03-23T07:49:09;13.02;;;4.22;;
45136;SDS011;30894;51.740;19.498;2024-03-23T07:51:36;6.40;;;3.05;;
45136;SDS011;30894;51.740;19.498;2024-03-23T07:54:06;7.75;;;3.75;;
45136;SDS011;30894;51.740;19.498;2024-03-23T07:56:32;3.20;;;1.77;;
45136;SDS011;30894;51.740;19.498;2024-03-23T07:58:58;7.78;;;3.63;;
45136;SDS011;30894;51.740;19.498;2024-03-23T08:01:25;11.68;;;4.38;;
45136;SDS011;30894;51.740;19.498;2024-03-23T08:03:52;6.82;;;3.10;;
45136;SDS011;30894;51.740;19.498;2024-03-23T08:06:21;10.95;;;4.20;;
45136;SDS011;30894;51.740;19.498;2024-03-23T08:08:52;10.07;;;3.75;;
45136;SDS011;30894;51.740;19.498;2024-03-23T08:11:31;10.43;;;4.47;;
45136;SDS011;30894;51.740;19.498;2024-03-23T08:14:01;9.85;;;4.82;;
45136;SDS011;30894;51.740;19.498;2024-03-23T08:16:27;7.75;;;3.63;;
45136;SDS011;30894;51.740;19.498;2024-03-23T08:18:55;5.60;;;3.38;;
45136;SDS011;30894;51.740;19.498;2024-03-23T08:21:21;12.40;;;4.57;;
45136;SDS011;30894;51.740;19.498;2024-03-23T08:23:48;10.10;;;4.45;;
45136;SDS011;30894;51.740;19.498;2024-03-23T08:26:15;11.05;;;5.55;;
45136;SDS011;30894;51.740;19.498;2024-03-23T08:28:43;9.65;;;4.68;;
45136;SDS011;30894;51.740;19.498;2024-03-23T08:31:10;13.10;;;4.68;;
45136;SDS011;30894;51.740;19.498;2024-03-23T08:33:37;10.45;;;5.00;;
45136;SDS011;30894;51.740;19.498;2024-03-23T08:36:05;7.78;;;3.92;;
45136;SDS011;30894;51.740;19.498;2024-03-23T08:38:43;9.02;;;3.83;;
45136;SDS011;30894;51.740;19.498;2024-03-23T08:41:11;15.05;;;4.90;;
45136;SDS011;30894;51.740;19.498;2024-03-23T08:43:38;9.02;;;4.70;;
45136;SDS011;30894;51.740;19.498;2024-03-23T08:46:09;9.82;;;4.10;;
45136;SDS011;30894;51.740;19.498;2024-03-23T08:48:42;10.60;;;4.90;;
45136;SDS011;30894;51.740;19.498;2024-03-23T08:51:13;10.40;;;3.70;;
45136;SDS011;30894;51.740;19.498;2024-03-23T08:53:43;9.07;;;4.57;;
45136;SDS011;30894;51.740;19.498;2024-03-23T08:56:10;8.55;;;3.63;;
45136;SDS011;30894;51.740;19.498;2024-03-23T08:58:39;8.65;;;4.43;;
45136;SDS011;30894;51.740;19.498;2024-03-23T09:01:09;8.73;;;4.88;;
45136;SDS011;30894;51.740;19.498;2024-03-23T09:03:39;7.57;;;3.35;;
45136;SDS011;30894;51.740;19.498;2024-03-23T09:06:08;8.18;;;4.28;;
45136;SDS011;30894;51.740;19.498;2024-03-23T09:08:37;7.97;;;4.25;;
45136;SDS011;30894;51.740;19.498;2024-03-23T09:11:06;10.60;;;4.80;;
45136;SDS011;30894;51.740;19.498;2024-03-23T09:13:36;6.78;;;3.60;;
45136;SDS011;30894;51.740;19.498;2024-03-23T09:16:04;9.23;;;5.07;;
45136;SDS011;30894;51.740;19.498;2024-03-23T09:18:33;8.30;;;4.60;;
45136;SDS011;30894;51.740;19.498;2024-03-23T09:21:17;5.82;;;3.33;;
45136;SDS011;30894;51.740;19.498;2024-03-23T09:23:56;6.70;;;3.80;;
45136;SDS011;30894;51.740;19.498;2024-03-23T09:26:26;7.78;;;3.72;;
45136;SDS011;30894;51.740;19.498;2024-03-23T09:28:59;6.80;;;4.00;;
45136;SDS011;30894;51.740;19.498;2024-03-23T09:31:27;7.95;;;4.15;;
45136;SDS011;30894;51.740;19.498;2024-03-23T09:33:54;6.75;;;3.42;;
45136;SDS011;30894;51.740;19.498;2024-03-23T09:36:21;11.95;;;4.28;;
45136;SDS011;30894;51.740;19.498;2024-03-23T09:38:53;8.30;;;4.15;;
45136;SDS011;30894;51.740;19.498;2024-03-23T09:41:20;8.55;;;4.18;;
45136;SDS011;30894;51.740;19.498;2024-03-23T09:43:52;6.80;;;4.10;;
45136;SDS011;30894;51.740;19.498;2024-03-23T09:46:20;6.85;;;3.20;;
45136;SDS011;30894;51.740;19.498;2024-03-23T09:48:47;8.70;;;5.20;;
45136;SDS011;30894;51.740;19.498;2024-03-23T09:51:14;5.90;;;3.30;;
45136;SDS011;30894;51.740;19.498;2024-03-23T09:53:43;5.57;;;3.78;;
45136;SDS011;30894;51.740;19.498;2024-03-23T09:56:09;3.70;;;1.73;;
45136;SDS011;30894;51.740;19.498;2024-03-23T09:58:40;7.07;;;3.60;;
45136;SDS011;30894;51.740;19.498;2024-03-23T10:01:07;10.15;;;4.10;;
45136;SDS011;30894;51.740;19.498;2024-03-23T10:03:44;8.13;;;4.93;;
45136;SDS011;30894;51.740;19.498;2024-03-23T10:06:11;8.68;;;4.10;;
45136;SDS011;30894;51.740;19.498;2024-03-23T10:08:38;8.48;;;3.80;;
45136;SDS011;30894;51.740;19.498;2024-03-23T10:11:14;5.65;;;3.38;;
45136;SDS011;30894;51.740;19.498;2024-03-23T10:13:43;3.30;;;2.38;;
45136;SDS011;30894;51.740;19.498;2024-03-23T10:16:11;5.78;;;2.97;;
45136;SDS011;30894;51.740;19.498;2024-03-23T10:18:49;3.22;;;1.83;;
45136;SDS011;30894;51.740;19.498;2024-03-23T10:21:18;5.32;;;2.75;;
45136;SDS011;30894;51.740;19.498;2024-03-23T10:23:44;5.57;;;3.47;;
45136;SDS011;30894;51.740;19.498;2024-03-23T10:26:12;4.28;;;2.60;;
45136;SDS011;30894;51.740;19.498;2024-03-23T10:31:33;5.82;;;3.35;;
45136;SDS011;30894;51.740;19.498;2024-03-23T10:34:03;6.60;;;3.20;;
45136;SDS011;30894;51.740;19.498;2024-03-23T10:36:30;7.75;;;3.22;;
45136;SDS011;30894;51.740;19.498;2024-03-23T10:38:57;6.20;;;3.55;;
45136;SDS011;30894;51.740;19.498;2024-03-23T10:41:28;6.57;;;3.97;;
45136;SDS011;30894;51.740;19.498;2024-03-23T10:43:59;5.78;;;3.92;;
45136;SDS011;30894;51.740;19.498;2024-03-23T10:46:28;2.88;;;1.65;;
45136;SDS011;30894;51.740;19.498;2024-03-23T10:48:55;6.70;;;3.83;;
45136;SDS011;30894;51.740;19.498;2024-03-23T10:51:21;6.10;;;3.72;;
45136;SDS011;30894;51.740;19.498;2024-03-23T10:53:48;6.22;;;3.80;;
45136;SDS011;30894;51.740;19.498;2024-03-23T10:56:14;9.40;;;4.43;;
45136;SDS011;30894;51.740;19.498;2024-03-23T10:58:43;5.40;;;2.50;;
45136;SDS011;30894;51.740;19.498;2024-03-23T11:01:15;9.93;;;4.00;;
45136;SDS011;30894;51.740;19.498;2024-03-23T11:03:44;9.27;;;4.20;;
45136;SDS011;30894;51.740;19.498;2024-03-23T11:06:33;5.70;;;3.70;;
45136;SDS011;30894;51.740;19.498;2024-03-23T11:14:54;7.40;;;4.43;;
45136;SDS011;30894;51.740;19.498;2024-03-23T11:17:31;5.55;;;3.30;;
45136;SDS011;30894;51.740;19.498;2024-03-23T11:20:01;9.80;;;3.92;;
45136;SDS011;30894;51.740;19.498;2024-03-23T11:25:19;7.18;;;3.80;;
45136;SDS011;30894;51.740;19.498;2024-03-23T11:27:50;9.15;;;4.65;;
45136;SDS011;30894;51.740;19.498;2024-03-23T11:30:25;7.55;;;3.92;;
45136;SDS011;30894;51.740;19.498;2024-03-23T11:32:55;7.82;;;4.57;;
45136;SDS011;30894;51.740;19.498;2024-03-23T11:35:32;7.50;;;4.32;;
45136;SDS011;30894;51.740;19.498;2024-03-23T11:40:40;9.18;;;3.80;;
45136;SDS011;30894;51.740;19.498;2024-03-23T11:43:08;8.15;;;3.92;;
45136;SDS011;30894;51.740;19.498;2024-03-23T11:45:40;10.43;;;4.20;;
45136;SDS011;30894;51.740;19.498;2024-03-23T11:48:15;11.93;;;3.80;;
45136;SDS011;30894;51.740;19.498;2024-03-23T11:50:47;6.25;;;4.07;;
45136;SDS011;30894;51.740;19.498;2024-03-23T11:53:16;13.02;;;4.15;;
45136;SDS011;30894;51.740;19.498;2024-03-23T11:56:19;7.53;;;3.92;;
45136;SDS011;30894;51.740;19.498;2024-03-23T11:58:38;8.73;;;4.18;;
45136;SDS011;30894;51.740;19.498;2024-03-23T12:01:04;6.95;;;4.00;;
45136;SDS011;30894;51.740;19.498;2024-03-23T12:03:35;7.07;;;3.50;;
45136;SDS011;30894;51.740;19.498;2024-03-23T12:06:04;7.22;;;4.50;;
45136;SDS011;30894;51.740;19.498;2024-03-23T12:08:32;7.05;;;3.17;;
45136;SDS011;30894;51.740;19.498;2024-03-23T12:11:06;8.15;;;4.10;;
45136;SDS011;30894;51.740;19.498;2024-03-23T12:13:37;9.00;;;3.88;;
45136;SDS011;30894;51.740;19.498;2024-03-23T12:16:15;7.07;;;3.92;;
45136;SDS011;30894;51.740;19.498;2024-03-23T12:18:46;6.60;;;3.85;;
45136;SDS011;30894;51.740;19.498;2024-03-23T12:21:15;8.25;;;3.95;;
45136;SDS011;30894;51.740;19.498;2024-03-23T12:23:42;7.25;;;4.30;;
45136;SDS011;30894;51.740;19.498;2024-03-23T12:26:14;10.60;;;4.97;;
45136;SDS011;30894;51.740;19.498;2024-03-23T12:28:43;9.70;;;5.22;;
45136;SDS011;30894;51.740;19.498;2024-03-23T12:31:10;14.30;;;5.95;;
45136;SDS011;30894;51.740;19.498;2024-03-23T12:33:36;10.40;;;4.75;;
45136;SDS011;30894;51.740;19.498;2024-03-23T12:36:03;11.68;;;4.50;;
45136;SDS011;30894;51.740;19.498;2024-03-23T12:38:30;9.15;;;4.25;;
45136;SDS011;30894;51.740;19.498;2024-03-23T12:40:57;9.10;;;4.82;;
45136;SDS011;30894;51.740;19.498;2024-03-23T12:43:23;10.90;;;4.90;;
45136;SDS011;30894;51.740;19.498;2024-03-23T12:45:50;12.57;;;5.30;;
45136;SDS011;30894;51.740;19.498;2024-03-23T12:48:16;15.48;;;6.18;;
45136;SDS011;30894;51.740;19.498;2024-03-23T12:50:43;16.92;;;7.15;;
45136;SDS011;30894;51.740;19.498;2024-03-23T12:53:09;10.20;;;4.97;;
45136;SDS011;30894;51.740;19.498;2024-03-23T12:55:35;10.60;;;4.70;;
45136;SDS011;30894;51.740;19.498;2024-03-23T12:58:02;8.07;;;3.95;;
45136;SDS011;30894;51.740;19.498;2024-03-23T13:00:29;10.32;;;5.00;;
45136;SDS011;30894;51.740;19.498;2024-03-23T13:02:58;10.23;;;5.40;;
45136;SDS011;30894;51.740;19.498;2024-03-23T13:05:24;10.55;;;4.63;;
45136;SDS011;30894;51.740;19.498;2024-03-23T13:07:51;7.93;;;4.50;;
45136;SDS011;30894;51.740;19.498;2024-03-23T13:10:17;8.18;;;4.63;;
45136;SDS011;30894;51.740;19.498;2024-03-23T13:12:43;8.20;;;5.00;;
45136;SDS011;30894;51.740;19.498;2024-03-23T13:15:12;7.10;;;4.20;;
45136;SDS011;30894;51.740;19.498;2024-03-23T13:17:38;7.88;;;4.50;;
45136;SDS011;30894;51.740;19.498;2024-03-23T13:20:04;8.80;;;4.60;;
45136;SDS011;30894;51.740;19.498;2024-03-23T13:22:31;7.30;;;4.00;;
45136;SDS011;30894;51.740;19.498;2024-03-23T13:24:58;10.02;;;4.68;;
45136;SDS011;30894;51.740;19.498;2024-03-23T13:27:25;8.73;;;4.25;;
45136;SDS011;30894;51.740;19.498;2024-03-23T13:29:51;12.48;;;4.50;;
45136;SDS011;30894;51.740;19.498;2024-03-23T13:32:17;8.38;;;4.57;;
45136;SDS011;30894;51.740;19.498;2024-03-23T13:34:44;8.20;;;4.30;;
45136;SDS011;30894;51.740;19.498;2024-03-23T13:37:10;9.85;;;5.13;;
45136;SDS011;30894;51.740;19.498;2024-03-23T13:39:38;10.98;;;5.07;;
45136;SDS011;30894;51.740;19.498;2024-03-23T13:42:07;12.70;;;6.07;;
45136;SDS011;30894;51.740;19.498;2024-03-23T13:44:34;8.63;;;4.85;;
45136;SDS011;30894;51.740;19.498;2024-03-23T13:47:01;9.52;;;4.40;;
45136;SDS011;30894;51.740;19.498;2024-03-23T13:49:30;4.43;;;3.78;;
45136;SDS011;30894;51.740;19.498;2024-03-23T13:52:00;5.88;;;1.80;;
45136;SDS011;30894;51.740;19.498;2024-03-23T13:54:27;9.15;;;1.83;;
45136;SDS011;30894;51.740;19.498;2024-03-23T13:56:57;0.00;;;0.00;;
45136;SDS011;30894;51.740;19.498;2024-03-23T13:59:23;0.00;;;0.00;;
45136;SDS011;30894;51.740;19.498;2024-03-23T14:01:50;0.00;;;0.00;;
45136;SDS011;30894;51.740;19.498;2024-03-23T14:04:23;0.10;;;0.10;;
45136;SDS011;30894;51.740;19.498;2024-03-23T14:06:50;0.00;;;0.00;;
45136;SDS011;30894;51.740;19.498;2024-03-23T14:09:18;0.00;;;0.00;;
45136;SDS011;30894;51.740;19.498;2024-03-23T14:11:51;0.00;;;0.00;;
45136;SDS011;30894;51.740;19.498;2024-03-23T14:14:18;0.00;;;0.00;;
45136;SDS011;30894;51.740;19.498;2024-03-23T14:16:44;0.05;;;0.05;;
45136;SDS011;30894;51.740;19.498;2024-03-23T14:19:11;0.10;;;0.10;;
45136;SDS011;30894;51.740;19.498;2024-03-23T14:21:40;0.10;;;0.10;;
45136;SDS011;30894;51.740;19.498;2024-03-23T14:24:06;0.10;;;0.10;;
45136;SDS011;30894;51.740;19.498;2024-03-23T14:26:34;0.10;;;0.10;;
45136;SDS011;30894;51.740;19.498;2024-03-23T14:29:07;0.10;;;0.10;;
45136;SDS011;30894;51.740;19.498;2024-03-23T14:31:36;0.10;;;0.10;;
45136;SDS011;30894;51.740;19.498;2024-03-23T14:34:03;0.10;;;0.10;;
45136;SDS011;30894;51.740;19.498;2024-03-23T14:36:32;0.10;;;0.10;;
45136;SDS011;30894;51.740;19.498;2024-03-23T14:38:59;0.10;;;0.10;;
45136;SDS011;30894;51.740;19.498;2024-03-23T14:41:25;0.00;;;0.00;;
45136;SDS011;30894;51.740;19.498;2024-03-23T14:43:56;0.10;;;0.10;;
45136;SDS011;30894;51.740;19.498;2024-03-23T14:46:24;0.10;;;0.10;;
45136;SDS011;30894;51.740;19.498;2024-03-23T14:48:51;0.10;;;0.10;;
45136;SDS011;30894;51.740;19.498;2024-03-23T14:51:21;0.00;;;0.00;;
45136;SDS011;30894;51.740;19.498;2024-03-23T14:53:49;0.00;;;0.00;;
45136;SDS011;30894;51.740;19.498;2024-03-23T14:56:15;0.08;;;0.08;;
45136;SDS011;30894;51.740;19.498;2024-03-23T14:58:42;0.10;;;0.10;;
45136;SDS011;30894;51.740;19.498;2024-03-23T15:01:10;0.10;;;0.10;;
45136;SDS011;30894;51.740;19.498;2024-03-23T15:03:40;0.10;;;0.10;;
45136;SDS011;30894;51.740;19.498;2024-03-23T15:06:12;0.00;;;0.00;;
45136;SDS011;30894;51.740;19.498;2024-03-23T15:08:39;0.00;;;0.00;;
45136;SDS011;30894;51.740;19.498;2024-03-23T15:11:08;0.00;;;0.00;;
45136;SDS011;30894;51.740;19.498;2024-03-23T15:13:38;0.10;;;0.10;;
45136;SDS011;30894;51.740;19.498;2024-03-23T15:16:04;0.10;;;0.10;;
45136;SDS011;30894;51.740;19.498;2024-03-23T15:18:38;0.10;;;0.10;;
45136;SDS011;30894;51.740;19.498;2024-03-23T15:21:04;0.10;;;0.10;;
45136;SDS011;30894;51.740;19.498;2024-03-23T15:23:32;0.00;;;0.00;;
45136;SDS011;30894;51.740;19.498;2024-03-23T15:25:59;0.10;;;0.10;;
45136;SDS011;30894;51.740;19.498;2024-03-23T15:28:28;0.10;;;0.10;;
45136;SDS011;30894;51.740;19.498;2024-03-23T15:31:27;0.10;;;0.10;;
45136;SDS011;30894;51.740;19.498;2024-03-23T15:33:55;0.10;;;0.10;;
45136;SDS011;30894;51.740;19.498;2024-03-23T15:36:23;0.00;;;0.00;;
45136;SDS011;30894;51.740;19.498;2024-03-23T15:38:50;0.10;;;0.10;;
45136;SDS011;30894;51.740;19.498;2024-03-23T15:41:16;0.10;;;0.10;;
45136;SDS011;30894;51.740;19.498;2024-03-23T15:43:43;0.00;;;0.00;;
45136;SDS011;30894;51.740;19.498;2024-03-23T15:46:09;0.10;;;0.10;;